sensor_id;sensor_type;location;lat;lon;timestamp;P1;durP1;ratioP1;P2;durP2;ratioP2
39612;SDS011;25303;48.896;13.342;2022-10-31T00:01:37;4.72;;;1.30;;
39612;SDS011;25303;48.896;13.342;2022-10-31T00:04:21;7.03;;;1.75;;
39612;SDS011;25303;48.896;13.342;2022-10-31T00:07:05;4.13;;;1.08;;
39612;SDS011;25303;48.896;13.342;2022-10-31T00:09:48;4.97;;;0.90;;
39612;SDS011;25303;48.896;13.342;2022-10-31T00:12:31;5.05;;;1.00;;
39612;SDS011;25303;48.896;13.342;2022-10-31T00:15:14;2.17;;;0.80;;
39612;SDS011;25303;48.896;13.342;2022-10-31T00:17:58;2.92;;;1.00;;
39612;SDS011;25303;48.896;13.342;2022-10-31T00:20:41;7.05;;;1.20;;
39612;SDS011;25303;48.896;13.342;2022-10-31T00:23:25;7.05;;;1.30;;
39612;SDS011;25303;48.896;13.342;2022-10-31T00:26:08;3.75;;;1.23;;
39612;SDS011;25303;48.896;13.342;2022-10-31T00:28:52;7.25;;;1.10;;
39612;SDS011;25303;48.896;13.342;2022-10-31T00:31:34;3.50;;;1.30;;
39612;SDS011;25303;48.896;13.342;2022-10-31T00:34:17;8.52;;;1.42;;
39612;SDS011;25303;48.896;13.342;2022-10-31T00:37:00;8.00;;;1.33;;
39612;SDS011;25303;48.896;13.342;2022-10-31T00:39:45;7.20;;;1.25;;
39612;SDS011;25303;48.896;13.342;2022-10-31T00:42:30;4.60;;;0.95;;
39612;SDS011;25303;48.896;13.342;2022-10-31T00:45:13;3.67;;;1.08;;
39612;SDS011;25303;48.896;13.342;2022-10-31T00:47:56;5.47;;;0.95;;
39612;SDS011;25303;48.896;13.342;2022-10-31T00:50:41;7.97;;;1.02;;
39612;SDS011;25303;48.896;13.342;2022-10-31T00:53:25;6.00;;;0.95;;
39612;SDS011;25303;48.896;13.342;2022-10-31T00:56:09;7.00;;;1.27;;
39612;SDS011;25303;48.896;13.342;2022-10-31T00:58:52;6.90;;;1.35;;
39612;SDS011;25303;48.896;13.342;2022-10-31T01:01:35;5.07;;;1.20;;
39612;SDS011;25303;48.896;13.342;2022-10-31T01:04:18;3.63;;;1.05;;
39612;SDS011;25303;48.896;13.342;2022-10-31T01:07:03;5.18;;;1.05;;
39612;SDS011;25303;48.896;13.342;2022-10-31T01:09:46;6.50;;;0.98;;
39612;SDS011;25303;48.896;13.342;2022-10-31T01:12:30;3.22;;;0.60;;
39612;SDS011;25303;48.896;13.342;2022-10-31T01:15:19;7.35;;;1.02;;
39612;SDS011;25303;48.896;13.342;2022-10-31T01:18:03;5.60;;;0.85;;
39612;SDS011;25303;48.896;13.342;2022-10-31T01:20:46;6.97;;;1.00;;
39612;SDS011;25303;48.896;13.342;2022-10-31T01:23:29;3.33;;;1.05;;
39612;SDS011;25303;48.896;13.342;2022-10-31T01:26:13;4.25;;;1.00;;
39612;SDS011;25303;48.896;13.342;2022-10-31T01:28:59;3.80;;;1.10;;
39612;SDS011;25303;48.896;13.342;2022-10-31T01:31:43;4.32;;;1.17;;
39612;SDS011;25303;48.896;13.342;2022-10-31T01:34:26;3.13;;;0.90;;
39612;SDS011;25303;48.896;13.342;2022-10-31T01:37:09;4.10;;;0.90;;
39612;SDS011;25303;48.896;13.342;2022-10-31T01:39:51;3.33;;;1.00;;
39612;SDS011;25303;48.896;13.342;2022-10-31T01:42:34;6.72;;;0.90;;
39612;SDS011;25303;48.896;13.342;2022-10-31T01:45:19;4.07;;;0.68;;
39612;SDS011;25303;48.896;13.342;2022-10-31T01:48:02;3.08;;;0.80;;
39612;SDS011;25303;48.896;13.342;2022-10-31T01:50:46;4.22;;;0.80;;
39612;SDS011;25303;48.896;13.342;2022-10-31T01:53:31;3.90;;;0.80;;
39612;SDS011;25303;48.896;13.342;2022-10-31T01:56:14;5.82;;;1.20;;
39612;SDS011;25303;48.896;13.342;2022-10-31T01:58:59;2.38;;;0.90;;
39612;SDS011;25303;48.896;13.342;2022-10-31T02:01:46;5.65;;;0.90;;
39612;SDS011;25303;48.896;13.342;2022-10-31T02:04:32;4.40;;;0.75;;
39612;SDS011;25303;48.896;13.342;2022-10-31T02:07:20;4.47;;;0.75;;
39612;SDS011;25303;48.896;13.342;2022-10-31T02:10:10;4.25;;;0.80;;
39612;SDS011;25303;48.896;13.342;2022-10-31T02:12:53;4.95;;;1.00;;
39612;SDS011;25303;48.896;13.342;2022-10-31T02:15:40;4.18;;;0.60;;
39612;SDS011;25303;48.896;13.342;2022-10-31T02:18:27;2.17;;;0.70;;
39612;SDS011;25303;48.896;13.342;2022-10-31T02:21:14;4.53;;;0.90;;
39612;SDS011;25303;48.896;13.342;2022-10-31T02:30:22;3.22;;;0.80;;
39612;SDS011;25303;48.896;13.342;2022-10-31T02:33:10;3.90;;;0.95;;
39612;SDS011;25303;48.896;13.342;2022-10-31T02:36:02;6.35;;;0.90;;
39612;SDS011;25303;48.896;13.342;2022-10-31T02:38:56;4.05;;;1.15;;
39612;SDS011;25303;48.896;13.342;2022-10-31T02:41:52;6.85;;;0.85;;
39612;SDS011;25303;48.896;13.342;2022-10-31T02:44:47;2.78;;;0.80;;
39612;SDS011;25303;48.896;13.342;2022-10-31T02:47:37;3.90;;;0.90;;
39612;SDS011;25303;48.896;13.342;2022-10-31T02:50:23;5.05;;;0.80;;
39612;SDS011;25303;48.896;13.342;2022-10-31T02:53:13;4.57;;;0.82;;
39612;SDS011;25303;48.896;13.342;2022-10-31T02:55:58;5.88;;;0.75;;
39612;SDS011;25303;48.896;13.342;2022-10-31T02:58:44;4.60;;;0.90;;
39612;SDS011;25303;48.896;13.342;2022-10-31T03:04:47;2.92;;;0.70;;
39612;SDS011;25303;48.896;13.342;2022-10-31T03:07:45;6.70;;;1.13;;
39612;SDS011;25303;48.896;13.342;2022-10-31T03:10:35;5.20;;;1.05;;
39612;SDS011;25303;48.896;13.342;2022-10-31T03:13:26;4.10;;;1.00;;
39612;SDS011;25303;48.896;13.342;2022-10-31T03:16:18;4.05;;;0.85;;
39612;SDS011;25303;48.896;13.342;2022-10-31T03:19:12;5.00;;;0.90;;
39612;SDS011;25303;48.896;13.342;2022-10-31T03:21:59;2.17;;;0.80;;
39612;SDS011;25303;48.896;13.342;2022-10-31T03:24:49;5.57;;;1.30;;
39612;SDS011;25303;48.896;13.342;2022-10-31T03:27:35;5.10;;;1.02;;
39612;SDS011;25303;48.896;13.342;2022-10-31T03:30:20;3.30;;;1.23;;
39612;SDS011;25303;48.896;13.342;2022-10-31T03:33:13;4.82;;;1.00;;
39612;SDS011;25303;48.896;13.342;2022-10-31T03:36:00;5.95;;;1.15;;
39612;SDS011;25303;48.896;13.342;2022-10-31T03:38:46;3.50;;;0.85;;
39612;SDS011;25303;48.896;13.342;2022-10-31T03:41:34;5.25;;;1.08;;
39612;SDS011;25303;48.896;13.342;2022-10-31T03:44:23;7.72;;;1.40;;
39612;SDS011;25303;48.896;13.342;2022-10-31T03:47:13;5.68;;;1.65;;
39612;SDS011;25303;48.896;13.342;2022-10-31T03:49:56;5.88;;;1.08;;
39612;SDS011;25303;48.896;13.342;2022-10-31T03:52:41;4.75;;;0.98;;
39612;SDS011;25303;48.896;13.342;2022-10-31T03:55:30;3.72;;;1.20;;
39612;SDS011;25303;48.896;13.342;2022-10-31T03:58:18;3.65;;;1.02;;
39612;SDS011;25303;48.896;13.342;2022-10-31T04:01:07;2.53;;;0.80;;
39612;SDS011;25303;48.896;13.342;2022-10-31T04:03:56;4.93;;;0.70;;
39612;SDS011;25303;48.896;13.342;2022-10-31T04:06:41;5.32;;;1.10;;
39612;SDS011;25303;48.896;13.342;2022-10-31T04:09:28;3.88;;;0.95;;
39612;SDS011;25303;48.896;13.342;2022-10-31T04:12:15;4.53;;;0.80;;
39612;SDS011;25303;48.896;13.342;2022-10-31T04:15:09;5.18;;;1.00;;
39612;SDS011;25303;48.896;13.342;2022-10-31T04:17:55;11.50;;;1.20;;
39612;SDS011;25303;48.896;13.342;2022-10-31T04:20:41;7.43;;;1.33;;
39612;SDS011;25303;48.896;13.342;2022-10-31T04:23:26;3.80;;;0.90;;
39612;SDS011;25303;48.896;13.342;2022-10-31T04:26:10;3.87;;;0.63;;
39612;SDS011;25303;48.896;13.342;2022-10-31T04:28:57;4.75;;;1.15;;
39612;SDS011;25303;48.896;13.342;2022-10-31T04:31:43;4.43;;;0.98;;
39612;SDS011;25303;48.896;13.342;2022-10-31T04:34:26;1.85;;;0.70;;
39612;SDS011;25303;48.896;13.342;2022-10-31T04:37:09;5.90;;;0.90;;
39612;SDS011;25303;48.896;13.342;2022-10-31T04:39:52;5.20;;;1.17;;
39612;SDS011;25303;48.896;13.342;2022-10-31T04:43:07;4.57;;;1.30;;
39612;SDS011;25303;48.896;13.342;2022-10-31T04:45:52;4.25;;;0.90;;
39612;SDS011;25303;48.896;13.342;2022-10-31T04:48:37;5.90;;;1.30;;
39612;SDS011;25303;48.896;13.342;2022-10-31T04:51:21;7.63;;;1.02;;
39612;SDS011;25303;48.896;13.342;2022-10-31T04:54:05;2.88;;;0.80;;
39612;SDS011;25303;48.896;13.342;2022-10-31T04:56:48;4.18;;;0.80;;
39612;SDS011;25303;48.896;13.342;2022-10-31T04:59:35;5.88;;;0.90;;
39612;SDS011;25303;48.896;13.342;2022-10-31T05:02:18;6.15;;;1.25;;
39612;SDS011;25303;48.896;13.342;2022-10-31T05:05:09;3.70;;;1.10;;
39612;SDS011;25303;48.896;13.342;2022-10-31T05:07:52;4.25;;;0.93;;
39612;SDS011;25303;48.896;13.342;2022-10-31T05:10:37;8.65;;;4.32;;
39612;SDS011;25303;48.896;13.342;2022-10-31T05:13:20;9.65;;;4.60;;
39612;SDS011;25303;48.896;13.342;2022-10-31T05:16:29;6.13;;;2.25;;
39612;SDS011;25303;48.896;13.342;2022-10-31T05:19:50;4.60;;;1.20;;
39612;SDS011;25303;48.896;13.342;2022-10-31T05:22:54;8.20;;;1.60;;
39612;SDS011;25303;48.896;13.342;2022-10-31T05:25:39;8.15;;;1.48;;
39612;SDS011;25303;48.896;13.342;2022-10-31T05:28:23;11.43;;;1.40;;
39612;SDS011;25303;48.896;13.342;2022-10-31T05:31:06;5.82;;;1.50;;
39612;SDS011;25303;48.896;13.342;2022-10-31T05:33:49;3.22;;;1.13;;
39612;SDS011;25303;48.896;13.342;2022-10-31T05:36:37;6.15;;;1.30;;
39612;SDS011;25303;48.896;13.342;2022-10-31T05:39:28;4.45;;;1.27;;
39612;SDS011;25303;48.896;13.342;2022-10-31T05:42:17;3.83;;;1.45;;
39612;SDS011;25303;48.896;13.342;2022-10-31T05:45:01;5.83;;;1.40;;
39612;SDS011;25303;48.896;13.342;2022-10-31T05:47:55;6.20;;;1.20;;
39612;SDS011;25303;48.896;13.342;2022-10-31T05:50:58;5.53;;;1.60;;
39612;SDS011;25303;48.896;13.342;2022-10-31T05:53:41;5.38;;;1.00;;
39612;SDS011;25303;48.896;13.342;2022-10-31T05:56:27;4.07;;;1.00;;
39612;SDS011;25303;48.896;13.342;2022-10-31T05:59:10;4.75;;;1.17;;
39612;SDS011;25303;48.896;13.342;2022-10-31T06:01:54;4.13;;;1.25;;
39612;SDS011;25303;48.896;13.342;2022-10-31T06:04:48;4.70;;;1.17;;
39612;SDS011;25303;48.896;13.342;2022-10-31T06:07:31;4.10;;;0.98;;
39612;SDS011;25303;48.896;13.342;2022-10-31T06:10:15;3.80;;;0.95;;
39612;SDS011;25303;48.896;13.342;2022-10-31T06:13:04;2.70;;;1.10;;
39612;SDS011;25303;48.896;13.342;2022-10-31T06:15:55;3.67;;;0.95;;
39612;SDS011;25303;48.896;13.342;2022-10-31T06:18:45;5.20;;;1.17;;
39612;SDS011;25303;48.896;13.342;2022-10-31T06:21:28;5.03;;;1.30;;
39612;SDS011;25303;48.896;13.342;2022-10-31T06:24:10;7.43;;;1.20;;
39612;SDS011;25303;48.896;13.342;2022-10-31T06:27:23;4.18;;;1.40;;
39612;SDS011;25303;48.896;13.342;2022-10-31T06:30:09;6.60;;;1.73;;
39612;SDS011;25303;48.896;13.342;2022-10-31T06:32:52;4.97;;;1.08;;
39612;SDS011;25303;48.896;13.342;2022-10-31T06:35:36;4.20;;;1.25;;
39612;SDS011;25303;48.896;13.342;2022-10-31T06:38:19;6.72;;;1.48;;
39612;SDS011;25303;48.896;13.342;2022-10-31T06:41:02;6.95;;;1.60;;
39612;SDS011;25303;48.896;13.342;2022-10-31T06:43:56;4.72;;;1.30;;
39612;SDS011;25303;48.896;13.342;2022-10-31T06:46:59;6.53;;;1.20;;
39612;SDS011;25303;48.896;13.342;2022-10-31T06:50:02;7.85;;;1.92;;
39612;SDS011;25303;48.896;13.342;2022-10-31T06:52:49;2.97;;;1.08;;
39612;SDS011;25303;48.896;13.342;2022-10-31T06:55:33;4.00;;;1.10;;
39612;SDS011;25303;48.896;13.342;2022-10-31T06:58:16;4.82;;;1.10;;
39612;SDS011;25303;48.896;13.342;2022-10-31T07:01:01;2.58;;;0.98;;
39612;SDS011;25303;48.896;13.342;2022-10-31T07:03:46;3.60;;;0.88;;
39612;SDS011;25303;48.896;13.342;2022-10-31T07:06:28;4.78;;;0.95;;
39612;SDS011;25303;48.896;13.342;2022-10-31T07:09:11;4.07;;;1.13;;
39612;SDS011;25303;48.896;13.342;2022-10-31T07:11:54;4.90;;;1.23;;
39612;SDS011;25303;48.896;13.342;2022-10-31T07:14:38;7.43;;;1.20;;
39612;SDS011;25303;48.896;13.342;2022-10-31T07:17:22;4.05;;;1.05;;
39612;SDS011;25303;48.896;13.342;2022-10-31T07:20:14;2.88;;;1.00;;
39612;SDS011;25303;48.896;13.342;2022-10-31T07:22:57;6.95;;;1.45;;
39612;SDS011;25303;48.896;13.342;2022-10-31T07:25:44;6.57;;;1.20;;
39612;SDS011;25303;48.896;13.342;2022-10-31T07:28:33;5.88;;;1.10;;
39612;SDS011;25303;48.896;13.342;2022-10-31T07:31:19;6.18;;;1.17;;
39612;SDS011;25303;48.896;13.342;2022-10-31T07:34:04;5.13;;;1.02;;
39612;SDS011;25303;48.896;13.342;2022-10-31T07:37:17;5.68;;;1.00;;
39612;SDS011;25303;48.896;13.342;2022-10-31T07:40:00;4.05;;;1.10;;
39612;SDS011;25303;48.896;13.342;2022-10-31T07:42:45;2.88;;;1.00;;
39612;SDS011;25303;48.896;13.342;2022-10-31T07:45:49;3.33;;;0.90;;
39612;SDS011;25303;48.896;13.342;2022-10-31T07:49:05;4.00;;;1.27;;
39612;SDS011;25303;48.896;13.342;2022-10-31T07:52:07;4.00;;;1.48;;
39612;SDS011;25303;48.896;13.342;2022-10-31T07:55:14;3.20;;;0.90;;
39612;SDS011;25303;48.896;13.342;2022-10-31T07:58:02;5.85;;;1.13;;
39612;SDS011;25303;48.896;13.342;2022-10-31T08:00:52;5.82;;;1.45;;
39612;SDS011;25303;48.896;13.342;2022-10-31T08:03:45;5.40;;;1.10;;
39612;SDS011;25303;48.896;13.342;2022-10-31T08:06:46;4.65;;;1.20;;
39612;SDS011;25303;48.896;13.342;2022-10-31T08:09:44;4.97;;;1.23;;
39612;SDS011;25303;48.896;13.342;2022-10-31T08:12:37;5.45;;;1.00;;
39612;SDS011;25303;48.896;13.342;2022-10-31T08:15:21;6.53;;;1.35;;
39612;SDS011;25303;48.896;13.342;2022-10-31T08:18:05;5.68;;;1.17;;
39612;SDS011;25303;48.896;13.342;2022-10-31T08:20:53;7.78;;;1.30;;
39612;SDS011;25303;48.896;13.342;2022-10-31T08:23:36;6.55;;;1.50;;
39612;SDS011;25303;48.896;13.342;2022-10-31T08:26:21;5.45;;;1.40;;
39612;SDS011;25303;48.896;13.342;2022-10-31T08:29:08;5.75;;;1.38;;
39612;SDS011;25303;48.896;13.342;2022-10-31T08:31:52;4.95;;;1.85;;
39612;SDS011;25303;48.896;13.342;2022-10-31T08:34:53;3.65;;;1.45;;
39612;SDS011;25303;48.896;13.342;2022-10-31T08:37:54;3.95;;;1.27;;
39612;SDS011;25303;48.896;13.342;2022-10-31T08:40:40;6.00;;;1.30;;
39612;SDS011;25303;48.896;13.342;2022-10-31T08:43:23;5.13;;;1.42;;
39612;SDS011;25303;48.896;13.342;2022-10-31T08:46:07;5.28;;;1.45;;
39612;SDS011;25303;48.896;13.342;2022-10-31T08:48:51;6.30;;;1.58;;
39612;SDS011;25303;48.896;13.342;2022-10-31T08:51:34;7.05;;;1.50;;
39612;SDS011;25303;48.896;13.342;2022-10-31T08:54:17;4.22;;;1.20;;
39612;SDS011;25303;48.896;13.342;2022-10-31T08:57:03;4.70;;;1.10;;
39612;SDS011;25303;48.896;13.342;2022-10-31T08:59:55;2.85;;;1.17;;
39612;SDS011;25303;48.896;13.342;2022-10-31T09:02:41;4.82;;;1.58;;
39612;SDS011;25303;48.896;13.342;2022-10-31T09:05:24;5.88;;;1.45;;
39612;SDS011;25303;48.896;13.342;2022-10-31T09:08:11;8.98;;;1.98;;
39612;SDS011;25303;48.896;13.342;2022-10-31T09:10:59;5.70;;;1.40;;
39612;SDS011;25303;48.896;13.342;2022-10-31T09:14:14;6.63;;;1.50;;
39612;SDS011;25303;48.896;13.342;2022-10-31T09:17:29;7.45;;;1.58;;
39612;SDS011;25303;48.896;13.342;2022-10-31T09:20:36;5.88;;;1.75;;
39612;SDS011;25303;48.896;13.342;2022-10-31T09:23:21;6.28;;;1.40;;
39612;SDS011;25303;48.896;13.342;2022-10-31T09:28:51;7.68;;;1.75;;
39612;SDS011;25303;48.896;13.342;2022-10-31T09:31:34;7.15;;;1.52;;
39612;SDS011;25303;48.896;13.342;2022-10-31T09:34:37;5.30;;;1.30;;
39612;SDS011;25303;48.896;13.342;2022-10-31T09:37:25;6.90;;;1.77;;
39612;SDS011;25303;48.896;13.342;2022-10-31T09:40:09;7.28;;;1.70;;
39612;SDS011;25303;48.896;13.342;2022-10-31T09:42:55;6.40;;;1.80;;
39612;SDS011;25303;48.896;13.342;2022-10-31T09:45:48;4.72;;;1.67;;
39612;SDS011;25303;48.896;13.342;2022-10-31T09:48:53;3.65;;;1.70;;
39612;SDS011;25303;48.896;13.342;2022-10-31T09:52:01;3.58;;;1.27;;
39612;SDS011;25303;48.896;13.342;2022-10-31T09:54:58;7.25;;;1.38;;
39612;SDS011;25303;48.896;13.342;2022-10-31T09:57:45;2.95;;;1.00;;
39612;SDS011;25303;48.896;13.342;2022-10-31T10:00:30;2.55;;;1.00;;
39612;SDS011;25303;48.896;13.342;2022-10-31T10:03:17;3.80;;;1.05;;
39612;SDS011;25303;48.896;13.342;2022-10-31T10:06:13;4.78;;;1.00;;
39612;SDS011;25303;48.896;13.342;2022-10-31T10:09:20;3.08;;;1.10;;
39612;SDS011;25303;48.896;13.342;2022-10-31T10:12:40;3.60;;;1.15;;
39612;SDS011;25303;48.896;13.342;2022-10-31T10:15:56;6.47;;;1.10;;
39612;SDS011;25303;48.896;13.342;2022-10-31T10:18:54;5.97;;;1.40;;
39612;SDS011;25303;48.896;13.342;2022-10-31T10:21:48;5.97;;;1.35;;
39612;SDS011;25303;48.896;13.342;2022-10-31T10:24:44;7.45;;;1.13;;
39612;SDS011;25303;48.896;13.342;2022-10-31T10:27:44;5.50;;;1.40;;
39612;SDS011;25303;48.896;13.342;2022-10-31T10:30:33;8.00;;;1.77;;
39612;SDS011;25303;48.896;13.342;2022-10-31T10:33:20;6.03;;;1.52;;
39612;SDS011;25303;48.896;13.342;2022-10-31T10:36:06;8.32;;;1.40;;
39612;SDS011;25303;48.896;13.342;2022-10-31T10:38:55;3.72;;;1.35;;
39612;SDS011;25303;48.896;13.342;2022-10-31T10:41:43;6.47;;;1.60;;
39612;SDS011;25303;48.896;13.342;2022-10-31T10:44:46;9.55;;;1.50;;
39612;SDS011;25303;48.896;13.342;2022-10-31T10:47:49;8.70;;;1.40;;
39612;SDS011;25303;48.896;13.342;2022-10-31T10:50:46;5.65;;;1.67;;
39612;SDS011;25303;48.896;13.342;2022-10-31T10:53:39;7.32;;;1.73;;
39612;SDS011;25303;48.896;13.342;2022-10-31T10:56:52;4.22;;;1.55;;
39612;SDS011;25303;48.896;13.342;2022-10-31T10:59:44;4.90;;;1.30;;
39612;SDS011;25303;48.896;13.342;2022-10-31T11:05:15;5.53;;;1.77;;
39612;SDS011;25303;48.896;13.342;2022-10-31T11:08:04;5.15;;;1.50;;
39612;SDS011;25303;48.896;13.342;2022-10-31T11:10:55;7.45;;;1.65;;
39612;SDS011;25303;48.896;13.342;2022-10-31T11:13:40;7.53;;;1.33;;
39612;SDS011;25303;48.896;13.342;2022-10-31T11:16:30;6.47;;;1.50;;
39612;SDS011;25303;48.896;13.342;2022-10-31T11:19:22;5.75;;;1.50;;
39612;SDS011;25303;48.896;13.342;2022-10-31T11:22:08;5.82;;;1.50;;
39612;SDS011;25303;48.896;13.342;2022-10-31T11:24:58;4.95;;;1.60;;
39612;SDS011;25303;48.896;13.342;2022-10-31T11:27:41;4.95;;;1.27;;
39612;SDS011;25303;48.896;13.342;2022-10-31T11:30:24;6.55;;;1.58;;
39612;SDS011;25303;48.896;13.342;2022-10-31T11:33:12;4.22;;;1.40;;
39612;SDS011;25303;48.896;13.342;2022-10-31T11:36:01;4.90;;;1.38;;
39612;SDS011;25303;48.896;13.342;2022-10-31T11:38:56;5.25;;;1.50;;
39612;SDS011;25303;48.896;13.342;2022-10-31T11:41:42;10.07;;;1.77;;
39612;SDS011;25303;48.896;13.342;2022-10-31T11:44:26;8.10;;;1.80;;
39612;SDS011;25303;48.896;13.342;2022-10-31T11:47:12;4.55;;;1.48;;
39612;SDS011;25303;48.896;13.342;2022-10-31T11:50:00;15.38;;;2.40;;
39612;SDS011;25303;48.896;13.342;2022-10-31T11:52:50;7.57;;;2.50;;
39612;SDS011;25303;48.896;13.342;2022-10-31T11:55:36;10.80;;;2.30;;
39612;SDS011;25303;48.896;13.342;2022-10-31T11:58:21;10.88;;;2.05;;
39612;SDS011;25303;48.896;13.342;2022-10-31T12:01:05;6.47;;;1.92;;
39612;SDS011;25303;48.896;13.342;2022-10-31T12:04:06;6.10;;;1.88;;
39612;SDS011;25303;48.896;13.342;2022-10-31T12:06:52;7.45;;;2.20;;
39612;SDS011;25303;48.896;13.342;2022-10-31T12:09:37;10.40;;;1.83;;
39612;SDS011;25303;48.896;13.342;2022-10-31T12:12:34;12.20;;;2.20;;
39612;SDS011;25303;48.896;13.342;2022-10-31T12:15:27;8.15;;;2.00;;
39612;SDS011;25303;48.896;13.342;2022-10-31T12:18:24;7.07;;;2.30;;
39612;SDS011;25303;48.896;13.342;2022-10-31T12:21:21;8.85;;;2.65;;
39612;SDS011;25303;48.896;13.342;2022-10-31T12:27:08;8.82;;;1.95;;
39612;SDS011;25303;48.896;13.342;2022-10-31T12:30:09;6.22;;;2.13;;
39612;SDS011;25303;48.896;13.342;2022-10-31T12:35:51;6.65;;;1.70;;
39612;SDS011;25303;48.896;13.342;2022-10-31T12:38:57;7.20;;;1.65;;
39612;SDS011;25303;48.896;13.342;2022-10-31T12:41:57;6.43;;;1.63;;
39612;SDS011;25303;48.896;13.342;2022-10-31T12:44:52;12.70;;;2.25;;
39612;SDS011;25303;48.896;13.342;2022-10-31T12:47:58;7.97;;;1.48;;
39612;SDS011;25303;48.896;13.342;2022-10-31T12:50:51;5.93;;;1.80;;
39612;SDS011;25303;48.896;13.342;2022-10-31T12:53:45;7.07;;;1.88;;
39612;SDS011;25303;48.896;13.342;2022-10-31T12:56:42;4.93;;;1.30;;
39612;SDS011;25303;48.896;13.342;2022-10-31T12:59:35;12.35;;;1.90;;
39612;SDS011;25303;48.896;13.342;2022-10-31T13:02:24;6.22;;;1.88;;
39612;SDS011;25303;48.896;13.342;2022-10-31T13:05:13;7.25;;;1.40;;
39612;SDS011;25303;48.896;13.342;2022-10-31T13:08:04;6.70;;;1.83;;
39612;SDS011;25303;48.896;13.342;2022-10-31T13:10:52;8.05;;;1.70;;
39612;SDS011;25303;48.896;13.342;2022-10-31T13:13:46;9.05;;;1.92;;
39612;SDS011;25303;48.896;13.342;2022-10-31T13:16:37;15.82;;;2.17;;
39612;SDS011;25303;48.896;13.342;2022-10-31T13:19:23;7.70;;;1.70;;
39612;SDS011;25303;48.896;13.342;2022-10-31T13:22:12;9.15;;;1.70;;
39612;SDS011;25303;48.896;13.342;2022-10-31T13:24:59;5.95;;;1.80;;
39612;SDS011;25303;48.896;13.342;2022-10-31T13:27:48;3.75;;;1.13;;
39612;SDS011;25303;48.896;13.342;2022-10-31T13:30:36;7.22;;;1.60;;
39612;SDS011;25303;48.896;13.342;2022-10-31T13:33:25;6.50;;;1.42;;
39612;SDS011;25303;48.896;13.342;2022-10-31T13:36:15;5.72;;;1.25;;
39612;SDS011;25303;48.896;13.342;2022-10-31T13:39:10;5.80;;;1.50;;
39612;SDS011;25303;48.896;13.342;2022-10-31T13:42:04;5.28;;;1.40;;
39612;SDS011;25303;48.896;13.342;2022-10-31T13:45:06;6.82;;;1.85;;
39612;SDS011;25303;48.896;13.342;2022-10-31T13:47:57;5.28;;;1.70;;
39612;SDS011;25303;48.896;13.342;2022-10-31T13:50:54;7.78;;;1.67;;
39612;SDS011;25303;48.896;13.342;2022-10-31T13:53:43;9.82;;;2.00;;
39612;SDS011;25303;48.896;13.342;2022-10-31T13:56:27;6.50;;;1.60;;
39612;SDS011;25303;48.896;13.342;2022-10-31T13:59:16;9.52;;;1.70;;
39612;SDS011;25303;48.896;13.342;2022-10-31T14:02:02;5.25;;;1.73;;
39612;SDS011;25303;48.896;13.342;2022-10-31T14:04:58;7.43;;;1.70;;
39612;SDS011;25303;48.896;13.342;2022-10-31T14:07:45;5.38;;;1.75;;
39612;SDS011;25303;48.896;13.342;2022-10-31T14:10:29;6.65;;;1.58;;
39612;SDS011;25303;48.896;13.342;2022-10-31T14:13:15;4.88;;;1.70;;
39612;SDS011;25303;48.896;13.342;2022-10-31T14:16:04;6.60;;;1.63;;
39612;SDS011;25303;48.896;13.342;2022-10-31T14:18:50;7.60;;;2.03;;
39612;SDS011;25303;48.896;13.342;2022-10-31T14:21:47;6.70;;;1.38;;
39612;SDS011;25303;48.896;13.342;2022-10-31T14:24:33;5.53;;;1.48;;
39612;SDS011;25303;48.896;13.342;2022-10-31T14:27:34;4.80;;;1.58;;
39612;SDS011;25303;48.896;13.342;2022-10-31T14:30:27;7.43;;;1.60;;
39612;SDS011;25303;48.896;13.342;2022-10-31T14:33:12;5.90;;;1.33;;
39612;SDS011;25303;48.896;13.342;2022-10-31T14:36:01;4.47;;;1.30;;
39612;SDS011;25303;48.896;13.342;2022-10-31T14:38:50;9.07;;;1.70;;
39612;SDS011;25303;48.896;13.342;2022-10-31T14:41:50;4.95;;;1.60;;
39612;SDS011;25303;48.896;13.342;2022-10-31T14:44:52;3.55;;;1.42;;
39612;SDS011;25303;48.896;13.342;2022-10-31T14:47:49;7.00;;;1.85;;
39612;SDS011;25303;48.896;13.342;2022-10-31T14:50:48;6.40;;;1.40;;
39612;SDS011;25303;48.896;13.342;2022-10-31T14:53:34;6.68;;;1.50;;
39612;SDS011;25303;48.896;13.342;2022-10-31T14:56:24;5.03;;;1.52;;
39612;SDS011;25303;48.896;13.342;2022-10-31T14:59:11;2.13;;;1.13;;
39612;SDS011;25303;48.896;13.342;2022-10-31T15:01:59;6.03;;;1.50;;
39612;SDS011;25303;48.896;13.342;2022-10-31T15:04:49;6.18;;;1.40;;
39612;SDS011;25303;48.896;13.342;2022-10-31T15:07:34;4.55;;;1.30;;
39612;SDS011;25303;48.896;13.342;2022-10-31T15:10:22;2.33;;;1.10;;
39612;SDS011;25303;48.896;13.342;2022-10-31T15:13:10;5.97;;;1.70;;
39612;SDS011;25303;48.896;13.342;2022-10-31T15:16:01;6.97;;;1.60;;
39612;SDS011;25303;48.896;13.342;2022-10-31T15:18:46;4.47;;;1.38;;
39612;SDS011;25303;48.896;13.342;2022-10-31T15:21:32;8.10;;;1.33;;
39612;SDS011;25303;48.896;13.342;2022-10-31T15:24:17;6.95;;;1.65;;
39612;SDS011;25303;48.896;13.342;2022-10-31T15:27:00;2.53;;;1.20;;
39612;SDS011;25303;48.896;13.342;2022-10-31T15:29:49;4.75;;;1.38;;
39612;SDS011;25303;48.896;13.342;2022-10-31T15:32:34;2.38;;;1.30;;
39612;SDS011;25303;48.896;13.342;2022-10-31T15:35:19;5.47;;;1.20;;
39612;SDS011;25303;48.896;13.342;2022-10-31T15:38:06;7.55;;;1.50;;
39612;SDS011;25303;48.896;13.342;2022-10-31T15:40:51;4.40;;;1.38;;
39612;SDS011;25303;48.896;13.342;2022-10-31T15:43:36;5.80;;;1.60;;
39612;SDS011;25303;48.896;13.342;2022-10-31T15:46:22;3.75;;;1.52;;
39612;SDS011;25303;48.896;13.342;2022-10-31T15:49:10;5.97;;;1.77;;
39612;SDS011;25303;48.896;13.342;2022-10-31T15:52:04;7.68;;;1.55;;
39612;SDS011;25303;48.896;13.342;2022-10-31T15:54:53;3.45;;;1.50;;
39612;SDS011;25303;48.896;13.342;2022-10-31T15:57:39;4.95;;;1.42;;
39612;SDS011;25303;48.896;13.342;2022-10-31T16:00:25;6.18;;;1.35;;
39612;SDS011;25303;48.896;13.342;2022-10-31T16:03:24;5.70;;;1.48;;
39612;SDS011;25303;48.896;13.342;2022-10-31T16:06:19;4.07;;;1.30;;
39612;SDS011;25303;48.896;13.342;2022-10-31T16:09:03;6.97;;;1.75;;
39612;SDS011;25303;48.896;13.342;2022-10-31T16:12:03;8.63;;;1.73;;
39612;SDS011;25303;48.896;13.342;2022-10-31T16:14:46;3.97;;;1.55;;
39612;SDS011;25303;48.896;13.342;2022-10-31T16:17:30;4.57;;;1.65;;
39612;SDS011;25303;48.896;13.342;2022-10-31T16:20:18;4.50;;;1.30;;
39612;SDS011;25303;48.896;13.342;2022-10-31T16:23:12;4.40;;;1.23;;
39612;SDS011;25303;48.896;13.342;2022-10-31T16:25:59;6.53;;;1.55;;
39612;SDS011;25303;48.896;13.342;2022-10-31T16:28:50;3.85;;;1.70;;
39612;SDS011;25303;48.896;13.342;2022-10-31T16:31:43;3.53;;;1.65;;
39612;SDS011;25303;48.896;13.342;2022-10-31T16:34:26;3.83;;;1.60;;
39612;SDS011;25303;48.896;13.342;2022-10-31T16:37:09;5.32;;;1.67;;
39612;SDS011;25303;48.896;13.342;2022-10-31T16:39:53;5.13;;;1.70;;
39612;SDS011;25303;48.896;13.342;2022-10-31T16:42:36;7.15;;;1.60;;
39612;SDS011;25303;48.896;13.342;2022-10-31T16:45:20;5.93;;;1.60;;
39612;SDS011;25303;48.896;13.342;2022-10-31T16:48:05;4.32;;;1.60;;
39612;SDS011;25303;48.896;13.342;2022-10-31T16:50:52;5.50;;;1.38;;
39612;SDS011;25303;48.896;13.342;2022-10-31T16:53:35;7.30;;;1.50;;
39612;SDS011;25303;48.896;13.342;2022-10-31T16:56:27;5.95;;;1.50;;
39612;SDS011;25303;48.896;13.342;2022-10-31T16:59:12;4.53;;;1.50;;
39612;SDS011;25303;48.896;13.342;2022-10-31T17:01:57;5.22;;;1.58;;
39612;SDS011;25303;48.896;13.342;2022-10-31T17:04:40;3.38;;;1.27;;